sensor_id;sensor_type;location;lat;lon;timestamp;pressure;altitude;pressure_sealevel;temperature;humidity
43436;BME280;36399;51.444;-2.018;2023-02-24T00:35:42;101207.09;;;-3.54;100.00
43436;BME280;36399;51.444;-2.018;2023-02-24T01:11:46;101177.19;;;-2.99;100.00
43436;BME280;36399;51.444;-2.018;2023-02-24T01:14:33;101177.50;;;-3.06;100.00
43436;BME280;36399;51.444;-2.018;2023-02-24T01:16:59;101179.44;;;-3.14;100.00
43436;BME280;36399;51.444;-2.018;2023-02-24T01:47:18;101144.19;;;-3.81;100.00
43436;BME280;36399;51.444;-2.018;2023-02-24T01:49:49;101139.31;;;-3.77;100.00
43436;BME280;36399;51.444;-2.018;2023-02-24T02:00:08;101143.50;;;-3.36;100.00
43436;BME280;36399;51.444;-2.018;2023-02-24T02:02:47;101142.72;;;-3.35;100.00
43436;BME280;36399;51.444;-2.018;2023-02-24T02:10:27;101135.06;;;-3.45;100.00
43436;BME280;36399;51.444;-2.018;2023-02-24T02:21:30;101123.69;;;-3.05;100.00
43436;BME280;36399;51.444;-2.018;2023-02-24T02:29:30;101123.06;;;-2.57;100.00
43436;BME280;36399;51.444;-2.018;2023-02-24T02:32:38;101122.41;;;-2.55;100.00
43436;BME280;36399;51.444;-2.018;2023-02-24T02:54:28;101100.41;;;-1.81;100.00
43436;BME280;36399;51.444;-2.018;2023-02-24T03:08:20;101077.56;;;-1.53;100.00
43436;BME280;36399;51.444;-2.018;2023-02-24T03:10:50;101067.38;;;-1.51;100.00
43436;BME280;36399;51.444;-2.018;2023-02-24T03:21:38;101058.06;;;-1.24;100.00
43436;BME280;36399;51.444;-2.018;2023-02-24T03:24:14;101055.41;;;-1.26;100.00
43436;BME280;36399;51.444;-2.018;2023-02-24T03:26:42;101046.97;;;-1.23;100.00
43436;BME280;36399;51.444;-2.018;2023-02-24T03:29:49;101038.69;;;-1.19;100.00
43436;BME280;36399;51.444;-2.018;2023-02-24T03:35:10;101029.00;;;-1.10;100.00
43436;BME280;36399;51.444;-2.018;2023-02-24T03:40:15;101028.09;;;-0.86;100.00
43436;BME280;36399;51.444;-2.018;2023-02-24T03:45:23;101016.00;;;-0.87;100.00
43436;BME280;36399;51.444;-2.018;2023-02-24T03:47:56;101010.63;;;-0.90;100.00
43436;BME280;36399;51.444;-2.018;2023-02-24T03:50:24;101005.59;;;-0.88;100.00
43436;BME280;36399;51.444;-2.018;2023-02-24T03:53:28;100994.69;;;-0.84;100.00
43436;BME280;36399;51.444;-2.018;2023-02-24T04:01:21;100985.47;;;-0.81;100.00
43436;BME280;36399;51.444;-2.018;2023-02-24T04:34:17;100939.28;;;-0.65;100.00
43436;BME280;36399;51.444;-2.018;2023-02-24T04:36:46;100943.75;;;-0.62;100.00
43436;BME280;36399;51.444;-2.018;2023-02-24T04:39:19;100926.47;;;-0.63;100.00
43436;BME280;36399;51.444;-2.018;2023-02-24T04:41:46;100919.94;;;-0.58;100.00
43436;BME280;36399;51.444;-2.018;2023-02-24T04:44:16;100922.22;;;-0.63;100.00
43436;BME280;36399;51.444;-2.018;2023-02-24T04:46:44;100923.31;;;-0.59;100.00
43436;BME280;36399;51.444;-2.018;2023-02-24T04:49:15;100918.16;;;-0.59;100.00
43436;BME280;36399;51.444;-2.018;2023-02-24T05:02:30;100905.53;;;-0.28;100.00
43436;BME280;36399;51.444;-2.018;2023-02-24T05:10:40;100892.81;;;-0.25;100.00
43436;BME280;36399;51.444;-2.018;2023-02-24T05:13:12;100893.50;;;-0.14;100.00
43436;BME280;36399;51.444;-2.018;2023-02-24T05:15:40;100884.81;;;-0.02;100.00
43436;BME280;36399;51.444;-2.018;2023-02-24T05:20:51;100879.88;;;0.02;100.00
43436;BME280;36399;51.444;-2.018;2023-02-24T05:34:03;100838.56;;;0.02;100.00
43436;BME280;36399;51.444;-2.018;2023-02-24T05:36:33;100830.84;;;0.02;100.00
43436;BME280;36399;51.444;-2.018;2023-02-24T05:39:00;100821.69;;;-0.07;100.00
43436;BME280;36399;51.444;-2.018;2023-02-24T05:44:23;100807.63;;;-0.12;100.00
43436;BME280;36399;51.444;-2.018;2023-02-24T05:46:53;100795.44;;;-0.14;100.00
43436;BME280;36399;51.444;-2.018;2023-02-24T05:49:28;100789.63;;;-0.25;100.00
43436;BME280;36399;51.444;-2.018;2023-02-24T05:54:44;100779.19;;;-0.41;100.00
43436;BME280;36399;51.444;-2.018;2023-02-24T05:57:15;100773.31;;;-0.39;100.00
43436;BME280;36399;51.444;-2.018;2023-02-24T05:59:47;100759.28;;;-0.29;100.00
43436;BME280;36399;51.444;-2.018;2023-02-24T06:04:49;100754.53;;;-0.51;100.00
43436;BME280;36399;51.444;-2.018;2023-02-24T06:07:21;100756.41;;;-0.61;100.00
43436;BME280;36399;51.444;-2.018;2023-02-24T06:09:54;100741.13;;;-0.58;100.00
43436;BME280;36399;51.444;-2.018;2023-02-24T06:15:04;100727.88;;;-0.65;100.00
43436;BME280;36399;51.444;-2.018;2023-02-24T06:17:32;100736.41;;;-0.66;100.00
43436;BME280;36399;51.444;-2.018;2023-02-24T06:30:35;100739.94;;;-1.05;100.00
43436;BME280;36399;51.444;-2.018;2023-02-24T06:33:02;100738.66;;;-1.11;100.00
43436;BME280;36399;51.444;-2.018;2023-02-24T06:35:31;100732.34;;;-1.03;100.00
43436;BME280;36399;51.444;-2.018;2023-02-24T06:37:57;100728.75;;;-1.05;100.00
43436;BME280;36399;51.444;-2.018;2023-02-24T06:40:24;100729.44;;;-1.08;100.00
43436;BME280;36399;51.444;-2.018;2023-02-24T06:42:52;100726.28;;;-1.17;100.00
43436;BME280;36399;51.444;-2.018;2023-02-24T06:45:22;100723.53;;;-1.20;100.00
43436;BME280;36399;51.444;-2.018;2023-02-24T06:47:49;100731.47;;;-1.30;100.00
43436;BME280;36399;51.444;-2.018;2023-02-24T06:50:16;100727.03;;;-1.46;100.00
43436;BME280;36399;51.444;-2.018;2023-02-24T06:52:48;100716.94;;;-1.56;100.00
43436;BME280;36399;51.444;-2.018;2023-02-24T06:55:15;100712.25;;;-1.62;100.00
43436;BME280;36399;51.444;-2.018;2023-02-24T06:57:52;100721.66;;;-1.75;100.00
43436;BME280;36399;51.444;-2.018;2023-02-24T07:00:24;100720.06;;;-1.86;100.00
43436;BME280;36399;51.444;-2.018;2023-02-24T07:03:06;100719.75;;;-1.91;100.00
43436;BME280;36399;51.444;-2.018;2023-02-24T07:05:45;100722.91;;;-1.95;100.00
43436;BME280;36399;51.444;-2.018;2023-02-24T07:08:20;100713.13;;;-1.87;100.00
43436;BME280;36399;51.444;-2.018;2023-02-24T07:10:54;100715.72;;;-1.61;100.00
43436;BME280;36399;51.444;-2.018;2023-02-24T07:13:25;100715.53;;;-1.38;100.00
43436;BME280;36399;51.444;-2.018;2023-02-24T07:15:53;100721.63;;;-1.09;100.00
43436;BME280;36399;51.444;-2.018;2023-02-24T07:18:20;100725.56;;;-0.88;100.00
43436;BME280;36399;51.444;-2.018;2023-02-24T07:20:47;100735.09;;;-0.59;100.00
43436;BME280;36399;51.444;-2.018;2023-02-24T07:23:15;100726.19;;;-0.36;100.00
43436;BME280;36399;51.444;-2.018;2023-02-24T07:25:43;100729.31;;;-0.27;100.00
43436;BME280;36399;51.444;-2.018;2023-02-24T07:28:14;100728.53;;;-0.11;100.00
43436;BME280;36399;51.444;-2.018;2023-02-24T07:30:40;100727.78;;;0.05;100.00
43436;BME280;36399;51.444;-2.018;2023-02-24T07:33:07;100723.22;;;0.15;100.00
43436;BME280;36399;51.444;-2.018;2023-02-24T07:35:36;100718.78;;;0.13;100.00
43436;BME280;36399;51.444;-2.018;2023-02-24T07:38:05;100714.16;;;0.22;100.00
43436;BME280;36399;51.444;-2.018;2023-02-24T07:40:32;100710.03;;;0.40;100.00
43436;BME280;36399;51.444;-2.018;2023-02-24T07:43:01;100702.53;;;0.45;100.00
43436;BME280;36399;51.444;-2.018;2023-02-24T07:45:28;100690.84;;;0.51;100.00
43436;BME280;36399;51.444;-2.018;2023-02-24T07:47:54;100694.03;;;0.77;100.00
43436;BME280;36399;51.444;-2.018;2023-02-24T07:50:21;100697.75;;;0.82;100.00
43436;BME280;36399;51.444;-2.018;2023-02-24T07:52:47;100687.81;;;1.04;100.00
43436;BME280;36399;51.444;-2.018;2023-02-24T07:55:13;100677.47;;;1.20;100.00
43436;BME280;36399;51.444;-2.018;2023-02-24T07:57:43;100667.44;;;1.10;100.00
43436;BME280;36399;51.444;-2.018;2023-02-24T08:00:15;100648.22;;;1.21;100.00
43436;BME280;36399;51.444;-2.018;2023-02-24T08:02:45;100645.22;;;1.30;100.00
43436;BME280;36399;51.444;-2.018;2023-02-24T08:05:16;100632.38;;;1.15;100.00
43436;BME280;36399;51.444;-2.018;2023-02-24T08:07:46;100629.41;;;1.24;100.00
43436;BME280;36399;51.444;-2.018;2023-02-24T08:10:17;100623.56;;;1.44;100.00
43436;BME280;36399;51.444;-2.018;2023-02-24T08:12:52;100625.78;;;1.54;100.00
43436;BME280;36399;51.444;-2.018;2023-02-24T08:15:23;100623.78;;;1.65;100.00
43436;BME280;36399;51.444;-2.018;2023-02-24T08:17:57;100620.84;;;1.75;100.00
43436;BME280;36399;51.444;-2.018;2023-02-24T08:20:27;100614.94;;;1.96;100.00
43436;BME280;36399;51.444;-2.018;2023-02-24T08:22:54;100612.19;;;2.09;100.00
43436;BME280;36399;51.444;-2.018;2023-02-24T08:25:26;100607.16;;;2.12;100.00
43436;BME280;36399;51.444;-2.018;2023-02-24T08:28:01;100609.28;;;2.38;100.00
43436;BME280;36399;51.444;-2.018;2023-02-24T08:30:32;100610.81;;;2.52;100.00
43436;BME280;36399;51.444;-2.018;2023-02-24T08:33:08;100599.28;;;2.46;100.00
43436;BME280;36399;51.444;-2.018;2023-02-24T08:35:36;100600.00;;;2.43;100.00
43436;BME280;36399;51.444;-2.018;2023-02-24T08:38:18;100595.53;;;2.59;100.00
43436;BME280;36399;51.444;-2.018;2023-02-24T08:40:50;100593.19;;;2.63;100.00
43436;BME280;36399;51.444;-2.018;2023-02-24T08:43:26;100600.31;;;2.87;100.00
43436;BME280;36399;51.444;-2.018;2023-02-24T08:51:34;100593.44;;;3.26;100.00
43436;BME280;36399;51.444;-2.018;2023-02-24T08:54:05;100578.03;;;3.49;100.00
43436;BME280;36399;51.444;-2.018;2023-02-24T08:56:36;100571.34;;;3.55;100.00
43436;BME280;36399;51.444;-2.018;2023-02-24T08:59:12;100577.97;;;3.48;100.00
43436;BME280;36399;51.444;-2.018;2023-02-24T09:02:10;100565.75;;;3.45;100.00
43436;BME280;36399;51.444;-2.018;2023-02-24T09:04:48;100570.56;;;3.57;100.00
43436;BME280;36399;51.444;-2.018;2023-02-24T09:07:18;100562.75;;;3.76;100.00
43436;BME280;36399;51.444;-2.018;2023-02-24T09:09:45;100571.56;;;4.01;100.00
43436;BME280;36399;51.444;-2.018;2023-02-24T09:12:12;100566.09;;;4.16;100.00
43436;BME280;36399;51.444;-2.018;2023-02-24T09:14:55;100563.09;;;4.27;100.00
43436;BME280;36399;51.444;-2.018;2023-02-24T09:17:24;100554.84;;;4.37;100.00
43436;BME280;36399;51.444;-2.018;2023-02-24T09:20:19;100543.13;;;4.49;100.00
43436;BME280;36399;51.444;-2.018;2023-02-24T09:22:56;100535.47;;;4.74;100.00
43436;BME280;36399;51.444;-2.018;2023-02-24T09:25:26;100541.78;;;4.81;100.00
43436;BME280;36399;51.444;-2.018;2023-02-24T09:28:09;100523.44;;;5.01;100.00
43436;BME280;36399;51.444;-2.018;2023-02-24T09:33:22;100512.81;;;5.19;100.00
43436;BME280;36399;51.444;-2.018;2023-02-24T09:35:56;100509.25;;;5.41;100.00
43436;BME280;36399;51.444;-2.018;2023-02-24T09:38:29;100507.44;;;5.65;100.00
43436;BME280;36399;51.444;-2.018;2023-02-24T09:41:50;100508.38;;;5.67;100.00
43436;BME280;36399;51.444;-2.018;2023-02-24T09:44:38;100510.38;;;5.75;100.00
43436;BME280;36399;51.444;-2.018;2023-02-24T09:49:59;100498.13;;;5.72;100.00
43436;BME280;36399;51.444;-2.018;2023-02-24T09:52:30;100495.91;;;5.57;100.00
43436;BME280;36399;51.444;-2.018;2023-02-24T09:58:22;100492.81;;;5.69;100.00
43436;BME280;36399;51.444;-2.018;2023-02-24T10:01:02;100490.50;;;6.04;100.00
43436;BME280;36399;51.444;-2.018;2023-02-24T10:04:18;100490.31;;;6.24;100.00
43436;BME280;36399;51.444;-2.018;2023-02-24T10:06:49;100487.09;;;6.33;100.00
43436;BME280;36399;51.444;-2.018;2023-02-24T10:11:54;100490.28;;;6.53;100.00
43436;BME280;36399;51.444;-2.018;2023-02-24T10:14:40;100493.28;;;6.67;100.00
43436;BME280;36399;51.444;-2.018;2023-02-24T10:17:16;100493.06;;;6.59;100.00
43436;BME280;36399;51.444;-2.018;2023-02-24T10:28:00;100484.41;;;6.90;100.00
43436;BME280;36399;51.444;-2.018;2023-02-24T10:30:51;100478.88;;;6.79;100.00
43436;BME280;36399;51.444;-2.018;2023-02-24T10:33:34;100473.75;;;6.82;100.00
43436;BME280;36399;51.444;-2.018;2023-02-24T10:36:08;100481.94;;;7.27;100.00
43436;BME280;36399;51.444;-2.018;2023-02-24T10:38:36;100478.78;;;7.39;100.00
43436;BME280;36399;51.444;-2.018;2023-02-24T10:41:04;100471.59;;;7.31;100.00
43436;BME280;36399;51.444;-2.018;2023-02-24T10:43:32;100469.75;;;7.28;100.00
43436;BME280;36399;51.444;-2.018;2023-02-24T10:46:30;100469.34;;;7.44;100.00
43436;BME280;36399;51.444;-2.018;2023-02-24T10:49:01;100464.78;;;7.72;100.00
43436;BME280;36399;51.444;-2.018;2023-02-24T10:51:35;100457.72;;;7.68;100.00
43436;BME280;36399;51.444;-2.018;2023-02-24T10:54:13;100463.13;;;7.75;100.00
43436;BME280;36399;51.444;-2.018;2023-02-24T10:57:02;100465.81;;;7.78;100.00
43436;BME280;36399;51.444;-2.018;2023-02-24T10:59:53;100466.03;;;7.86;100.00
43436;BME280;36399;51.444;-2.018;2023-02-24T11:02:35;100460.88;;;7.89;100.00
43436;BME280;36399;51.444;-2.018;2023-02-24T11:08:12;100463.41;;;7.86;100.00
43436;BME280;36399;51.444;-2.018;2023-02-24T11:11:24;100460.00;;;7.90;100.00
43436;BME280;36399;51.444;-2.018;2023-02-24T11:13:57;100461.56;;;7.82;100.00
43436;BME280;36399;51.444;-2.018;2023-02-24T11:16:50;100452.59;;;8.08;100.00
43436;BME280;36399;51.444;-2.018;2023-02-24T11:19:30;100445.06;;;8.23;100.00
43436;BME280;36399;51.444;-2.018;2023-02-24T11:21:57;100443.22;;;8.57;100.00
43436;BME280;36399;51.444;-2.018;2023-02-24T11:40:40;100401.19;;;10.64;100.00
43436;BME280;36399;51.444;-2.018;2023-02-24T11:43:14;100401.97;;;10.55;100.00
43436;BME280;36399;51.444;-2.018;2023-02-24T11:48:52;100399.88;;;11.04;100.00
43436;BME280;36399;51.444;-2.018;2023-02-24T11:51:27;100393.34;;;10.67;100.00
43436;BME280;36399;51.444;-2.018;2023-02-24T11:54:00;100397.28;;;10.31;100.00
43436;BME280;36399;51.444;-2.018;2023-02-24T11:56:44;100399.81;;;10.24;100.00
43436;BME280;36399;51.444;-2.018;2023-02-24T12:01:57;100402.53;;;10.33;100.00
43436;BME280;36399;51.444;-2.018;2023-02-24T12:04:33;100398.38;;;9.87;100.00
43436;BME280;36399;51.444;-2.018;2023-02-24T12:07:06;100394.81;;;9.83;100.00
43436;BME280;36399;51.444;-2.018;2023-02-24T12:09:37;100401.63;;;9.70;100.00
43436;BME280;36399;51.444;-2.018;2023-02-24T12:15:09;100405.22;;;9.24;100.00
43436;BME280;36399;51.444;-2.018;2023-02-24T12:17:40;100396.13;;;9.54;100.00
43436;BME280;36399;51.444;-2.018;2023-02-24T12:20:22;100395.41;;;9.11;100.00
43436;BME280;36399;51.444;-2.018;2023-02-24T12:23:13;100396.66;;;9.34;100.00
43436;BME280;36399;51.444;-2.018;2023-02-24T12:34:00;100364.47;;;9.97;100.00
43436;BME280;36399;51.444;-2.018;2023-02-24T12:39:29;100366.31;;;10.06;100.00
43436;BME280;36399;51.444;-2.018;2023-02-24T12:44:47;100357.16;;;9.78;100.00
43436;BME280;36399;51.444;-2.018;2023-02-24T12:47:26;100350.25;;;9.83;100.00
43436;BME280;36399;51.444;-2.018;2023-02-24T12:52:52;100350.63;;;9.48;100.00
43436;BME280;36399;51.444;-2.018;2023-02-24T12:55:25;100354.69;;;9.31;100.00
43436;BME280;36399;51.444;-2.018;2023-02-24T12:58:13;100350.97;;;9.17;100.00
43436;BME280;36399;51.444;-2.018;2023-02-24T13:05:45;100344.38;;;8.88;100.00
43436;BME280;36399;51.444;-2.018;2023-02-24T13:11:06;100354.19;;;9.01;100.00
43436;BME280;36399;51.444;-2.018;2023-02-24T13:16:41;100346.41;;;9.04;100.00
43436;BME280;36399;51.444;-2.018;2023-02-24T13:19:20;100340.56;;;9.20;100.00
43436;BME280;36399;51.444;-2.018;2023-02-24T13:22:07;100346.03;;;9.35;100.00
43436;BME280;36399;51.444;-2.018;2023-02-24T13:27:22;100320.47;;;9.78;100.00
43436;BME280;36399;51.444;-2.018;2023-02-24T13:29:49;100318.13;;;9.96;100.00
43436;BME280;36399;51.444;-2.018;2023-02-24T13:32:25;100313.09;;;10.16;100.00
43436;BME280;36399;51.444;-2.018;2023-02-24T13:37:42;100299.72;;;10.67;100.00
43436;BME280;36399;51.444;-2.018;2023-02-24T13:45:20;100266.91;;;11.20;100.00
43436;BME280;36399;51.444;-2.018;2023-02-24T13:50:23;100271.16;;;11.04;100.00
43436;BME280;36399;51.444;-2.018;2023-02-24T13:53:12;100267.63;;;10.99;100.00
43436;BME280;36399;51.444;-2.018;2023-02-24T13:55:49;100266.00;;;11.16;100.00
43436;BME280;36399;51.444;-2.018;2023-02-24T14:01:12;100260.81;;;11.25;100.00
43436;BME280;36399;51.444;-2.018;2023-02-24T14:03:41;100242.44;;;11.31;100.00
43436;BME280;36399;51.444;-2.018;2023-02-24T14:06:28;100248.69;;;11.46;100.00
43436;BME280;36399;51.444;-2.018;2023-02-24T14:08:57;100240.63;;;11.21;100.00
43436;BME280;36399;51.444;-2.018;2023-02-24T14:11:26;100248.28;;;10.91;100.00
43436;BME280;36399;51.444;-2.018;2023-02-24T14:13:55;100248.25;;;10.88;100.00
43436;BME280;36399;51.444;-2.018;2023-02-24T14:16:24;100244.63;;;10.73;100.00
43436;BME280;36399;51.444;-2.018;2023-02-24T14:18:59;100244.53;;;10.61;100.00
43436;BME280;36399;51.444;-2.018;2023-02-24T14:21:32;100257.50;;;10.45;100.00
43436;BME280;36399;51.444;-2.018;2023-02-24T14:24:00;100251.25;;;10.36;100.00
43436;BME280;36399;51.444;-2.018;2023-02-24T14:26:27;100251.47;;;10.53;100.00
43436;BME280;36399;51.444;-2.018;2023-02-24T14:28:57;100260.34;;;10.67;100.00
43436;BME280;36399;51.444;-2.018;2023-02-24T14:31:26;100243.81;;;10.81;100.00
43436;BME280;36399;51.444;-2.018;2023-02-24T14:34:00;100237.72;;;10.85;100.00
43436;BME280;36399;51.444;-2.018;2023-02-24T14:36:32;100232.41;;;10.79;100.00
43436;BME280;36399;51.444;-2.018;2023-02-24T14:39:14;100238.38;;;10.56;100.00
43436;BME280;36399;51.444;-2.018;2023-02-24T14:41:41;100235.66;;;10.47;100.00
43436;BME280;36399;51.444;-2.018;2023-02-24T14:46:50;100222.38;;;10.35;100.00
43436;BME280;36399;51.444;-2.018;2023-02-24T14:49:23;100226.63;;;10.21;100.00
43436;BME280;36399;51.444;-2.018;2023-02-24T14:51:59;100229.50;;;10.42;100.00
43436;BME280;36399;51.444;-2.018;2023-02-24T15:03:02;100236.38;;;9.63;100.00
43436;BME280;36399;51.444;-2.018;2023-02-24T15:05:30;100237.25;;;9.62;100.00
43436;BME280;36399;51.444;-2.018;2023-02-24T15:07:56;100246.06;;;9.68;100.00
43436;BME280;36399;51.444;-2.018;2023-02-24T15:24:02;100252.72;;;9.42;100.00
43436;BME280;36399;51.444;-2.018;2023-02-24T17:07:18;100380.25;;;6.06;100.00
43436;BME280;36399;51.444;-2.018;2023-02-24T19:23:01;100607.78;;;4.62;100.00
43436;BME280;36399;51.444;-2.018;2023-02-24T19:28:15;100595.84;;;4.67;100.00
43436;BME280;36399;51.444;-2.018;2023-02-24T19:30:42;100601.03;;;4.67;100.00
43436;BME280;36399;51.444;-2.018;2023-02-24T19:33:08;100601.19;;;4.70;100.00
43436;BME280;36399;51.444;-2.018;2023-02-24T19:35:42;100588.88;;;4.66;100.00
43436;BME280;36399;51.444;-2.018;2023-02-24T19:38:17;100574.81;;;4.61;100.00
43436;BME280;36399;51.444;-2.018;2023-02-24T19:40:43;100573.03;;;4.60;100.00
43436;BME280;36399;51.444;-2.018;2023-02-24T19:43:10;100569.03;;;4.46;100.00
43436;BME280;36399;51.444;-2.018;2023-02-24T19:45:42;100563.00;;;4.47;100.00
43436;BME280;36399;51.444;-2.018;2023-02-24T19:48:09;100560.88;;;4.36;100.00
43436;BME280;36399;51.444;-2.018;2023-02-24T19:50:41;100558.16;;;4.33;100.00
43436;BME280;36399;51.444;-2.018;2023-02-24T19:53:08;100551.06;;;4.29;100.00
43436;BME280;36399;51.444;-2.018;2023-02-24T19:55:34;100559.09;;;4.35;100.00
43436;BME280;36399;51.444;-2.018;2023-02-24T19:58:00;100551.19;;;4.32;100.00
43436;BME280;36399;51.444;-2.018;2023-02-24T20:00:30;100549.66;;;4.37;100.00
43436;BME280;36399;51.444;-2.018;2023-02-24T20:02:59;100544.44;;;4.37;100.00
43436;BME280;36399;51.444;-2.018;2023-02-24T20:05:28;100545.94;;;4.31;100.00
43436;BME280;36399;51.444;-2.018;2023-02-24T20:07:57;100547.53;;;4.27;100.00
43436;BME280;36399;51.444;-2.018;2023-02-24T20:10:26;100557.41;;;4.15;100.00
43436;BME280;36399;51.444;-2.018;2023-02-24T20:12:56;100560.34;;;4.02;100.00
43436;BME280;36399;51.444;-2.018;2023-02-24T20:15:23;100555.03;;;3.99;100.00
43436;BME280;36399;51.444;-2.018;2023-02-24T20:20:25;100558.19;;;3.92;100.00
43436;BME280;36399;51.444;-2.018;2023-02-24T20:36:31;100574.88;;;3.57;100.00
